createdAt,value
2018-11-22T00:02:22.058Z,13.10
2018-11-22T00:04:50.492Z,12.43
2018-11-22T00:07:18.902Z,12.97
2018-11-22T00:09:47.373Z,13.03
2018-11-22T00:12:15.818Z,13.30
2018-11-22T00:14:44.593Z,13.20
2018-11-22T00:17:13.021Z,11.13
2018-11-22T00:19:41.449Z,11.63
2018-11-22T00:22:09.845Z,10.57
2018-11-22T00:24:38.354Z,11.30
2018-11-22T00:27:06.793Z,10.70
2018-11-22T00:29:35.722Z,10.67
2018-11-22T00:32:04.140Z,10.70
2018-11-22T00:34:32.581Z,10.90
2018-11-22T00:37:01.001Z,11.03
2018-11-22T00:39:29.788Z,11.30
2018-11-22T00:41:58.203Z,11.27
2018-11-22T00:44:26.683Z,11.90
2018-11-22T00:46:55.131Z,11.27
2018-11-22T00:49:24.073Z,11.20
2018-11-22T00:51:52.652Z,11.13
2018-11-22T00:54:21.388Z,10.70
2018-11-22T00:56:49.834Z,11.60
2018-11-22T00:59:18.299Z,12.03
2018-11-22T01:01:46.738Z,11.20
2018-11-22T01:04:15.178Z,11.00
2018-11-22T01:06:43.570Z,12.03
2018-11-22T01:09:13.489Z,11.43
2018-11-22T01:11:42.041Z,10.83
2018-11-22T01:14:10.529Z,11.80
2018-11-22T01:16:38.986Z,12.50
2018-11-22T01:19:07.480Z,11.13
2018-11-22T01:21:35.946Z,12.37
2018-11-22T01:24:04.376Z,11.73
2018-11-22T01:26:33.297Z,10.83
2018-11-22T01:29:01.713Z,11.00
2018-11-22T01:31:30.144Z,10.70
2018-11-22T01:33:58.834Z,10.93
2018-11-22T01:36:27.275Z,11.20
2018-11-22T01:38:56.130Z,10.43
2018-11-22T01:41:24.569Z,10.07
2018-11-22T01:43:53.498Z,10.33
2018-11-22T01:46:22.322Z,10.30
2018-11-22T01:48:50.777Z,11.07
2018-11-22T01:51:19.280Z,10.97
2018-11-22T01:53:48.377Z,10.73
2018-11-22T01:56:16.852Z,10.47
2018-11-22T01:58:45.250Z,11.17
2018-11-22T02:01:13.697Z,11.43
2018-11-22T02:03:42.109Z,11.27
2018-11-22T02:06:10.534Z,10.87
2018-11-22T02:08:38.981Z,10.57
2018-11-22T02:11:07.505Z,10.63
2018-11-22T12:16:05.475Z,17.57
2018-11-22T12:18:36.848Z,19.63
2018-11-22T12:21:02.465Z,20.13
2018-11-22T12:23:30.962Z,18.40
2018-11-22T12:25:59.494Z,19.00
2018-11-22T12:28:27.957Z,20.57
2018-11-22T12:30:56.429Z,19.40
2018-11-22T12:33:41.123Z,19.40
2018-11-22T12:36:14.829Z,18.90
2018-11-22T12:38:44.176Z,20.43
2018-11-22T12:41:12.631Z,20.63
2018-11-22T12:43:41.384Z,20.87
2018-11-22T12:46:09.790Z,20.60
2018-11-22T12:48:38.261Z,20.13
2018-11-22T12:51:06.778Z,20.90
2018-11-22T12:53:35.196Z,19.60
2018-11-22T12:56:03.735Z,19.97
2018-11-22T12:58:32.285Z,19.90
2018-11-22T13:01:00.763Z,21.23
2018-11-22T13:03:29.454Z,20.50
2018-11-22T13:05:57.954Z,20.50
2018-11-22T13:08:26.345Z,20.53
2018-11-22T13:10:54.883Z,21.23
2018-11-22T13:13:23.520Z,20.50
2018-11-22T13:15:52.031Z,20.97
2018-11-22T13:18:20.541Z,21.13
2018-11-22T13:20:49.023Z,19.73
2018-11-22T13:23:17.418Z,20.17
2018-11-22T13:25:45.871Z,20.63
2018-11-22T13:28:14.341Z,20.63
2018-11-22T13:30:42.771Z,21.10
2018-11-22T13:33:11.253Z,20.50
2018-11-22T13:35:39.660Z,21.20
2018-11-22T13:38:08.145Z,20.67
2018-11-22T13:40:36.581Z,20.73
2018-11-22T13:43:05.488Z,19.83
2018-11-22T13:45:33.971Z,20.83
2018-11-22T13:48:02.437Z,21.37
2018-11-22T13:50:32.123Z,21.27
2018-11-22T13:53:03.215Z,20.83
2018-11-22T13:55:32.088Z,20.43
2018-11-22T13:58:00.634Z,20.67
2018-11-22T14:00:30.246Z,20.80
2018-11-22T14:03:00.215Z,21.33
2018-11-22T14:05:28.732Z,21.13
2018-11-22T14:07:57.256Z,21.40
2018-11-22T14:10:25.668Z,20.53
2018-11-22T14:12:54.178Z,20.00
2018-11-22T14:15:24.884Z,22.60
2018-11-22T14:17:54.874Z,21.77
2018-11-22T14:20:27.847Z,20.37
2018-11-22T14:22:56.349Z,20.57
2018-11-22T14:25:24.831Z,20.63
2018-11-22T14:27:53.314Z,19.93
2018-11-22T14:30:24.239Z,19.50
2018-11-22T14:32:53.136Z,20.57
2018-11-22T14:35:22.331Z,20.93
2018-11-22T14:37:50.857Z,20.07
2018-11-22T14:40:20.841Z,21.10
2018-11-22T14:42:50.027Z,20.97
2018-11-22T14:45:18.543Z,21.33
2018-11-22T14:47:48.103Z,21.33
2018-11-22T14:50:18.548Z,21.07
2018-11-22T14:52:49.282Z,21.67
2018-11-22T14:55:17.717Z,21.33
2018-11-22T14:57:46.189Z,21.43
2018-11-22T15:00:15.638Z,20.70
2018-11-22T15:02:45.676Z,20.10
2018-11-22T15:05:14.895Z,21.90
2018-11-22T15:07:43.938Z,21.07
2018-11-22T15:10:14.061Z,19.83
2018-11-22T15:12:43.797Z,20.13
2018-11-22T15:15:17.794Z,20.47
2018-11-22T15:17:46.216Z,20.73
2018-11-22T15:20:16.219Z,19.20
2018-11-22T15:22:45.499Z,20.97
2018-11-22T15:25:15.300Z,21.57
2018-11-22T15:27:44.481Z,20.63
2018-11-22T15:30:14.396Z,20.77
2018-11-22T15:32:42.857Z,21.10
2018-11-22T15:35:16.293Z,21.63
2018-11-22T15:37:44.934Z,21.20
2018-11-22T15:40:16.658Z,21.83
2018-11-22T15:42:46.025Z,21.70
2018-11-22T15:45:16.767Z,21.00
2018-11-22T15:47:45.427Z,20.57
2018-11-22T15:50:19.240Z,21.43
2018-11-22T15:52:47.659Z,21.60
2018-11-22T15:55:21.117Z,21.77
2018-11-22T15:57:46.904Z,21.17
2018-11-22T16:00:18.536Z,21.67
2018-11-22T16:02:47.537Z,21.23
2018-11-22T16:05:16.484Z,20.83
2018-11-22T16:07:44.965Z,21.80
2018-11-22T16:10:16.702Z,21.20
2018-11-22T16:12:45.893Z,21.20
2018-11-22T16:15:25.756Z,23.37
2018-11-22T16:17:54.265Z,21.07
2018-11-22T16:20:22.828Z,21.90
2018-11-22T16:22:51.292Z,22.20
2018-11-22T16:25:19.847Z,21.30
2018-11-22T16:27:48.331Z,21.30
2018-11-22T16:30:20.197Z,20.63
2018-11-22T16:32:48.690Z,19.30
2018-11-22T16:35:18.033Z,18.90
2018-11-22T16:37:46.577Z,19.37
2018-11-22T16:40:16.336Z,20.30
2018-11-22T16:42:46.411Z,19.00
2018-11-22T16:45:24.901Z,20.90
2018-11-22T16:47:53.379Z,19.30
2018-11-22T16:50:23.112Z,21.07
2018-11-22T16:52:51.721Z,19.73
2018-11-22T16:55:20.519Z,18.90
2018-11-22T16:57:50.076Z,19.00
2018-11-22T17:00:21.401Z,18.93
2018-11-22T17:02:51.581Z,19.73
2018-11-22T17:05:20.188Z,20.77
2018-11-22T17:07:48.772Z,21.73
2018-11-22T17:10:18.651Z,20.30
2018-11-22T17:12:47.748Z,20.20
2018-11-22T17:15:17.536Z,19.50
2018-11-22T17:17:46.490Z,18.53
2018-11-22T17:20:16.358Z,20.97
2018-11-22T17:22:45.566Z,20.87
2018-11-22T17:25:23.246Z,20.33
2018-11-22T17:27:53.541Z,18.37
2018-11-22T17:30:23.561Z,21.90
2018-11-22T17:32:52.032Z,22.07
2018-11-22T17:35:22.083Z,22.23
2018-11-22T17:37:50.849Z,21.33
2018-11-22T17:40:23.470Z,21.97
2018-11-22T17:42:51.965Z,21.50
2018-11-22T17:45:23.659Z,22.53
2018-11-22T17:47:52.167Z,21.63
2018-11-22T17:50:22.092Z,21.17
2018-11-22T17:52:50.835Z,20.43
2018-11-22T17:55:20.774Z,21.47
2018-11-22T17:57:49.314Z,22.40
2018-11-22T18:00:21.212Z,20.40
2018-11-22T18:02:51.094Z,21.43
2018-11-22T18:05:19.602Z,22.63
2018-11-22T18:07:48.020Z,21.77
2018-11-22T18:10:18.193Z,22.50
2018-11-22T18:12:47.725Z,21.77
2018-11-22T18:15:17.220Z,21.23
2018-11-22T18:17:45.799Z,21.93
2018-11-22T18:20:17.590Z,21.00
2018-11-22T18:22:46.749Z,23.30
2018-11-22T18:25:16.892Z,22.13
2018-11-22T18:27:45.350Z,23.10
2018-11-22T18:30:17.249Z,23.07
2018-11-22T18:32:47.145Z,21.27
2018-11-22T18:35:15.827Z,21.83
2018-11-22T18:37:44.447Z,22.70
2018-11-22T18:40:15.922Z,22.07
2018-11-22T18:42:45.362Z,22.83
2018-11-22T18:45:15.273Z,21.73
2018-11-22T18:47:44.853Z,22.57
2018-11-22T18:50:16.212Z,23.33
2018-11-22T18:52:45.084Z,23.13
2018-11-22T18:55:13.554Z,22.40
2018-11-22T18:57:42.589Z,22.40
2018-11-22T19:00:14.739Z,21.53
2018-11-22T19:02:43.256Z,21.37
2018-11-22T19:05:13.059Z,21.97
2018-11-22T19:07:42.582Z,20.60
2018-11-22T19:10:14.545Z,20.57
2018-11-22T19:12:43.941Z,21.70
2018-11-22T19:15:14.996Z,20.23
2018-11-22T19:17:43.544Z,19.83
2018-11-22T19:20:16.627Z,20.10
2018-11-22T19:22:45.925Z,18.37
2018-11-22T19:25:14.940Z,19.07
2018-11-22T19:27:43.926Z,18.03
2018-11-22T19:30:16.479Z,20.30
2018-11-22T19:32:46.329Z,19.37
2018-11-22T19:35:16.253Z,18.87
2018-11-22T19:37:45.145Z,20.07
2018-11-22T19:40:16.154Z,19.03
2018-11-22T19:42:45.799Z,20.70
2018-11-22T19:45:16.527Z,18.80
2018-11-22T19:47:45.107Z,19.80
2018-11-22T19:50:15.441Z,20.00
2018-11-22T19:52:44.733Z,19.00
2018-11-22T19:55:15.106Z,18.67
2018-11-22T19:57:44.590Z,18.80
2018-11-22T20:00:14.182Z,17.47
2018-11-22T20:02:43.267Z,18.63
2018-11-22T20:05:13.188Z,16.97
2018-11-22T20:07:42.164Z,18.23
2018-11-22T20:10:14.298Z,18.50
2018-11-22T20:12:43.124Z,18.37
2018-11-22T20:15:12.313Z,17.50
2018-11-22T20:17:40.984Z,18.57
2018-11-22T20:20:10.742Z,17.23
2018-11-22T20:22:39.547Z,17.27
2018-11-22T20:25:08.107Z,18.60
2018-11-22T20:27:36.682Z,18.47
2018-11-22T20:30:19.813Z,16.80
2018-11-22T20:32:48.361Z,16.90
2018-11-22T20:35:18.117Z,15.97
2018-11-22T20:37:47.194Z,18.10
2018-11-22T20:40:17.913Z,16.20
2018-11-22T20:42:46.372Z,16.23
2018-11-22T20:45:16.441Z,16.77
2018-11-22T20:47:45.969Z,15.77
2018-11-22T20:50:17.277Z,15.07
2018-11-22T20:52:45.772Z,14.30
2018-11-22T20:55:19.811Z,15.33
2018-11-22T20:57:49.513Z,13.90
2018-11-22T21:00:19.379Z,14.43
2018-11-22T21:02:47.935Z,14.20
2018-11-22T21:05:17.499Z,13.10
2018-11-22T21:07:46.209Z,14.23
2018-11-22T21:10:16.195Z,14.00
2018-11-22T21:12:44.677Z,13.30
2018-11-22T21:15:15.740Z,14.20
2018-11-22T21:17:44.769Z,14.53
2018-11-22T21:20:14.626Z,14.10
2018-11-22T21:22:43.028Z,14.10
2018-11-22T21:25:13.428Z,14.70
2018-11-22T21:27:41.909Z,16.27
2018-11-22T21:30:14.582Z,15.30
2018-11-22T21:32:43.201Z,14.57
2018-11-22T21:35:11.955Z,13.73
2018-11-22T21:37:40.440Z,14.87
2018-11-22T21:40:10.188Z,13.50
2018-11-22T21:42:38.963Z,13.90
2018-11-22T21:45:10.250Z,14.00
2018-11-22T21:47:38.737Z,13.87
2018-11-22T21:50:08.655Z,14.73
2018-11-22T21:52:37.475Z,13.73
2018-11-22T21:55:08.208Z,12.70
2018-11-22T21:57:37.532Z,13.63
2018-11-22T22:00:16.782Z,12.80
2018-11-22T22:02:52.446Z,12.33
2018-11-22T22:05:14.777Z,14.23
2018-11-22T22:07:43.219Z,14.47
2018-11-22T22:10:11.773Z,13.70
2018-11-22T22:12:40.929Z,13.03
2018-11-22T22:15:12.099Z,13.50
2018-11-22T22:17:41.381Z,13.93
2018-11-22T22:20:12.536Z,13.13
2018-11-22T22:22:41.381Z,13.73
2018-11-22T22:25:14.281Z,13.87
2018-11-22T22:27:43.201Z,14.40
2018-11-22T22:30:14.704Z,13.90
2018-11-22T22:32:43.947Z,14.50
2018-11-22T22:35:12.353Z,15.77
2018-11-22T22:37:40.937Z,13.70
2018-11-22T22:40:12.258Z,14.70
2018-11-22T22:42:41.667Z,14.57
2018-11-22T22:45:10.526Z,15.10
2018-11-22T22:47:39.046Z,15.23
2018-11-22T22:50:09.982Z,14.57
2018-11-22T22:52:38.335Z,13.93
2018-11-22T22:55:07.459Z,14.00
2018-11-22T22:57:35.850Z,15.90
2018-11-22T23:00:04.794Z,18.20
2018-11-22T23:02:33.203Z,16.90
2018-11-22T23:05:01.631Z,15.70
2018-11-22T23:07:30.038Z,15.57
2018-11-22T23:09:58.442Z,18.33
2018-11-22T23:12:26.852Z,18.70
2018-11-22T23:14:55.301Z,17.77
2018-11-22T23:17:23.786Z,17.57
2018-11-22T23:19:52.227Z,17.77
2018-11-22T23:22:20.677Z,26.13
2018-11-22T23:24:49.142Z,21.97
2018-11-22T23:27:17.547Z,20.83
2018-11-22T23:29:45.961Z,42.17
2018-11-22T23:32:14.424Z,33.57
2018-11-22T23:34:42.851Z,45.40
2018-11-22T23:37:11.259Z,36.93
2018-11-22T23:39:39.751Z,35.87
2018-11-22T23:42:08.145Z,36.17
2018-11-22T23:44:36.673Z,78.93
2018-11-22T23:47:05.640Z,52.87
2018-11-22T23:49:34.091Z,42.90
2018-11-22T23:52:02.624Z,38.17
2018-11-22T23:54:31.074Z,26.90
2018-11-22T23:56:59.538Z,26.17
2018-11-22T23:59:28.014Z,22.70
